sensor_id;sensor_type;location;lat;lon;timestamp;pressure;altitude;pressure_sealevel;temperature;humidity
48553;BME280;34335;51.566;6.994;2023-07-31T00:00:53;100461.88;;;15.29;100.00
48553;BME280;34335;51.566;6.994;2023-07-31T00:03:18;100463.28;;;15.42;100.00
48553;BME280;34335;51.566;6.994;2023-07-31T00:05:43;100463.09;;;15.50;100.00
48553;BME280;34335;51.566;6.994;2023-07-31T00:08:09;100458.81;;;15.46;100.00
48553;BME280;34335;51.566;6.994;2023-07-31T00:10:34;100454.69;;;15.36;100.00
48553;BME280;34335;51.566;6.994;2023-07-31T00:13:00;100461.91;;;15.27;100.00
48553;BME280;34335;51.566;6.994;2023-07-31T00:15:25;100454.09;;;15.24;100.00
48553;BME280;34335;51.566;6.994;2023-07-31T00:17:50;100447.00;;;15.30;100.00
48553;BME280;34335;51.566;6.994;2023-07-31T00:20:16;100454.78;;;15.33;100.00
48553;BME280;34335;51.566;6.994;2023-07-31T00:22:41;100446.00;;;15.35;100.00
48553;BME280;34335;51.566;6.994;2023-07-31T00:25:06;100451.16;;;15.38;100.00
48553;BME280;34335;51.566;6.994;2023-07-31T00:27:32;100447.66;;;15.38;100.00
48553;BME280;34335;51.566;6.994;2023-07-31T00:29:57;100445.94;;;15.38;100.00
48553;BME280;34335;51.566;6.994;2023-07-31T00:32:23;100452.84;;;15.41;100.00
48553;BME280;34335;51.566;6.994;2023-07-31T00:34:48;100433.59;;;15.42;100.00
48553;BME280;34335;51.566;6.994;2023-07-31T00:37:13;100433.50;;;15.45;100.00
48553;BME280;34335;51.566;6.994;2023-07-31T00:39:40;100438.84;;;15.42;100.00
48553;BME280;34335;51.566;6.994;2023-07-31T00:42:06;100439.66;;;15.44;100.00
48553;BME280;34335;51.566;6.994;2023-07-31T00:44:31;100441.38;;;15.45;100.00
48553;BME280;34335;51.566;6.994;2023-07-31T00:46:56;100439.66;;;15.44;100.00
48553;BME280;34335;51.566;6.994;2023-07-31T00:49:24;100431.06;;;15.39;100.00
48553;BME280;34335;51.566;6.994;2023-07-31T00:51:49;100443.19;;;15.43;100.00
48553;BME280;34335;51.566;6.994;2023-07-31T00:54:15;100444.03;;;15.43;100.00
48553;BME280;34335;51.566;6.994;2023-07-31T00:56:41;100434.41;;;15.44;100.00
48553;BME280;34335;51.566;6.994;2023-07-31T00:59:06;100431.91;;;15.39;100.00
48553;BME280;34335;51.566;6.994;2023-07-31T01:01:32;100437.06;;;15.42;100.00
48553;BME280;34335;51.566;6.994;2023-07-31T01:03:57;100434.34;;;15.47;100.00
48553;BME280;34335;51.566;6.994;2023-07-31T01:06:52;100443.09;;;15.46;100.00
48553;BME280;34335;51.566;6.994;2023-07-31T01:09:38;100441.22;;;15.51;100.00
48553;BME280;34335;51.566;6.994;2023-07-31T01:12:07;100436.09;;;15.47;100.00
48553;BME280;34335;51.566;6.994;2023-07-31T01:14:32;100440.44;;;15.48;100.00
48553;BME280;34335;51.566;6.994;2023-07-31T01:16:58;100437.06;;;15.42;100.00
48553;BME280;34335;51.566;6.994;2023-07-31T01:19:25;100430.03;;;15.45;100.00
48553;BME280;34335;51.566;6.994;2023-07-31T01:25:13;100448.34;;;15.46;100.00
48553;BME280;34335;51.566;6.994;2023-07-31T01:27:55;100434.41;;;15.44;100.00
48553;BME280;34335;51.566;6.994;2023-07-31T01:30:26;100440.47;;;15.46;100.00
48553;BME280;34335;51.566;6.994;2023-07-31T01:32:54;100438.84;;;15.42;100.00
48553;BME280;34335;51.566;6.994;2023-07-31T01:35:21;100424.91;;;15.40;100.00
48553;BME280;34335;51.566;6.994;2023-07-31T01:37:46;100428.25;;;15.45;100.00
48553;BME280;34335;51.566;6.994;2023-07-31T01:40:11;100433.63;;;15.40;100.00
48553;BME280;34335;51.566;6.994;2023-07-31T01:42:37;100426.59;;;15.42;100.00
48553;BME280;34335;51.566;6.994;2023-07-31T01:45:02;100424.88;;;15.41;100.00
48553;BME280;34335;51.566;6.994;2023-07-31T01:47:27;100423.97;;;15.42;100.00
48553;BME280;34335;51.566;6.994;2023-07-31T01:49:53;100413.44;;;15.44;100.00
48553;BME280;34335;51.566;6.994;2023-07-31T01:52:18;100423.06;;;15.43;100.00
48553;BME280;34335;51.566;6.994;2023-07-31T01:54:43;100421.41;;;15.41;100.00
48553;BME280;34335;51.566;6.994;2023-07-31T01:57:08;100419.63;;;15.41;100.00
48553;BME280;34335;51.566;6.994;2023-07-31T01:59:34;100417.00;;;15.43;100.00
48553;BME280;34335;51.566;6.994;2023-07-31T02:02:00;100412.66;;;15.40;100.00
48553;BME280;34335;51.566;6.994;2023-07-31T02:04:25;100410.91;;;15.41;100.00
48553;BME280;34335;51.566;6.994;2023-07-31T02:06:50;100418.78;;;15.39;100.00
48553;BME280;34335;51.566;6.994;2023-07-31T02:09:16;100415.38;;;15.37;100.00
48553;BME280;34335;51.566;6.994;2023-07-31T02:11:41;100419.84;;;15.34;100.00
48553;BME280;34335;51.566;6.994;2023-07-31T02:14:06;100411.97;;;15.34;100.00
48553;BME280;34335;51.566;6.994;2023-07-31T02:16:31;100404.91;;;15.36;100.00
48553;BME280;34335;51.566;6.994;2023-07-31T02:18:57;100410.31;;;15.30;100.00
48553;BME280;34335;51.566;6.994;2023-07-31T02:21:22;100406.88;;;15.27;100.00
48553;BME280;34335;51.566;6.994;2023-07-31T02:23:47;100400.69;;;15.30;100.00
48553;BME280;34335;51.566;6.994;2023-07-31T02:26:13;100411.16;;;15.30;100.00
48553;BME280;34335;51.566;6.994;2023-07-31T02:28:38;100405.09;;;15.30;100.00
48553;BME280;34335;51.566;6.994;2023-07-31T02:31:03;100409.44;;;15.31;100.00
48553;BME280;34335;51.566;6.994;2023-07-31T02:33:29;100401.56;;;15.31;100.00
48553;BME280;34335;51.566;6.994;2023-07-31T02:35:54;100396.47;;;15.24;100.00
48553;BME280;34335;51.566;6.994;2023-07-31T02:38:19;100399.91;;;15.28;100.00
48553;BME280;34335;51.566;6.994;2023-07-31T02:40:44;100404.25;;;15.29;100.00
48553;BME280;34335;51.566;6.994;2023-07-31T02:43:10;100405.25;;;15.23;100.00
48553;BME280;34335;51.566;6.994;2023-07-31T02:45:35;100401.63;;;15.27;100.00
48553;BME280;34335;51.566;6.994;2023-07-31T02:48:00;100404.38;;;15.23;100.00
48553;BME280;34335;51.566;6.994;2023-07-31T02:50:26;100395.50;;;15.29;100.00
48553;BME280;34335;51.566;6.994;2023-07-31T02:52:52;100397.28;;;15.28;100.00
48553;BME280;34335;51.566;6.994;2023-07-31T02:55:18;100403.28;;;15.32;100.00
48553;BME280;34335;51.566;6.994;2023-07-31T02:57:43;100397.22;;;15.30;100.00
48553;BME280;34335;51.566;6.994;2023-07-31T03:00:08;100392.88;;;15.29;100.00
48553;BME280;34335;51.566;6.994;2023-07-31T03:02:34;100386.81;;;15.26;100.00
48553;BME280;34335;51.566;6.994;2023-07-31T03:04:59;100388.59;;;15.24;100.00
48553;BME280;34335;51.566;6.994;2023-07-31T03:07:25;100385.09;;;15.25;100.00
48553;BME280;34335;51.566;6.994;2023-07-31T03:09:50;100379.84;;;15.27;100.00
48553;BME280;34335;51.566;6.994;2023-07-31T03:12:15;100378.13;;;15.26;100.00
48553;BME280;34335;51.566;6.994;2023-07-31T03:14:41;100375.56;;;15.23;100.00
48553;BME280;34335;51.566;6.994;2023-07-31T03:17:06;100380.75;;;15.24;100.00
48553;BME280;34335;51.566;6.994;2023-07-31T03:19:32;100382.53;;;15.24;100.00
48553;BME280;34335;51.566;6.994;2023-07-31T03:21:57;100377.34;;;15.22;100.00
48553;BME280;34335;51.566;6.994;2023-07-31T03:24:23;100380.81;;;15.23;100.00
48553;BME280;34335;51.566;6.994;2023-07-31T03:26:48;100371.94;;;15.29;100.00
48553;BME280;34335;51.566;6.994;2023-07-31T03:29:13;100378.94;;;15.28;100.00
48553;BME280;34335;51.566;6.994;2023-07-31T03:31:38;100378.22;;;15.21;100.00
48553;BME280;34335;51.566;6.994;2023-07-31T03:34:04;100378.13;;;15.26;100.00
48553;BME280;34335;51.566;6.994;2023-07-31T03:36:29;100385.09;;;15.25;100.00
48553;BME280;34335;51.566;6.994;2023-07-31T03:38:54;100382.41;;;15.29;100.00
48553;BME280;34335;51.566;6.994;2023-07-31T03:41:20;100384.25;;;15.25;100.00
48553;BME280;34335;51.566;6.994;2023-07-31T03:43:49;100383.34;;;15.26;100.00
48553;BME280;34335;51.566;6.994;2023-07-31T03:46:16;100385.06;;;15.27;100.00
48553;BME280;34335;51.566;6.994;2023-07-31T03:48:41;100374.50;;;15.30;100.00
48553;BME280;34335;51.566;6.994;2023-07-31T03:51:07;100371.75;;;15.36;100.00
48553;BME280;34335;51.566;6.994;2023-07-31T03:53:32;100368.28;;;15.34;100.00
48553;BME280;34335;51.566;6.994;2023-07-31T03:55:57;100368.25;;;15.36;100.00
48553;BME280;34335;51.566;6.994;2023-07-31T03:58:22;100369.06;;;15.38;100.00
48553;BME280;34335;51.566;6.994;2023-07-31T04:00:48;100362.94;;;15.39;100.00
48553;BME280;34335;51.566;6.994;2023-07-31T04:03:13;100366.38;;;15.41;100.00
48553;BME280;34335;51.566;6.994;2023-07-31T04:05:39;100366.44;;;15.38;100.00
48553;BME280;34335;51.566;6.994;2023-07-31T04:08:05;100364.81;;;15.34;100.00
48553;BME280;34335;51.566;6.994;2023-07-31T04:10:30;100373.47;;;15.36;100.00
48553;BME280;34335;51.566;6.994;2023-07-31T04:12:58;100359.34;;;15.41;100.00
48553;BME280;34335;51.566;6.994;2023-07-31T04:15:23;100364.59;;;15.43;100.00
48553;BME280;34335;51.566;6.994;2023-07-31T04:17:48;100365.34;;;15.47;100.00
48553;BME280;34335;51.566;6.994;2023-07-31T04:20:14;100354.81;;;15.48;100.00
48553;BME280;34335;51.566;6.994;2023-07-31T04:22:39;100355.66;;;15.49;100.00
48553;BME280;34335;51.566;6.994;2023-07-31T04:25:06;100346.91;;;15.50;100.00
48553;BME280;34335;51.566;6.994;2023-07-31T04:27:31;100348.63;;;15.52;100.00
48553;BME280;34335;51.566;6.994;2023-07-31T04:29:56;100342.34;;;15.58;100.00
48553;BME280;34335;51.566;6.994;2023-07-31T04:32:22;100345.75;;;15.60;100.00
48553;BME280;34335;51.566;6.994;2023-07-31T04:34:47;100350.97;;;15.62;100.00
48553;BME280;34335;51.566;6.994;2023-07-31T04:37:12;100342.28;;;15.60;100.00
48553;BME280;34335;51.566;6.994;2023-07-31T04:39:39;100344.00;;;15.61;100.00
48553;BME280;34335;51.566;6.994;2023-07-31T04:42:04;100339.59;;;15.63;100.00
48553;BME280;34335;51.566;6.994;2023-07-31T04:44:30;100337.00;;;15.61;100.00
48553;BME280;34335;51.566;6.994;2023-07-31T04:46:55;100339.59;;;15.63;100.00
48553;BME280;34335;51.566;6.994;2023-07-31T04:49:20;100344.47;;;15.75;100.00
48553;BME280;34335;51.566;6.994;2023-07-31T04:51:46;100348.81;;;15.76;100.00
48553;BME280;34335;51.566;6.994;2023-07-31T04:54:11;100345.22;;;15.80;100.00
48553;BME280;34335;51.566;6.994;2023-07-31T04:56:40;100340.91;;;15.78;100.00
48553;BME280;34335;51.566;6.994;2023-07-31T04:59:05;100342.75;;;15.74;100.00
48553;BME280;34335;51.566;6.994;2023-07-31T05:01:31;100340.25;;;15.69;100.00
48553;BME280;34335;51.566;6.994;2023-07-31T05:03:56;100335.06;;;15.68;100.00
48553;BME280;34335;51.566;6.994;2023-07-31T05:06:21;100335.16;;;15.65;100.00
48553;BME280;34335;51.566;6.994;2023-07-31T05:08:46;100333.28;;;15.68;100.00
48553;BME280;34335;51.566;6.994;2023-07-31T05:11:12;100327.19;;;15.68;100.00
48553;BME280;34335;51.566;6.994;2023-07-31T05:13:37;100328.97;;;15.67;100.00
48553;BME280;34335;51.566;6.994;2023-07-31T05:16:02;100317.44;;;15.73;100.00
48553;BME280;34335;51.566;6.994;2023-07-31T05:18:28;100321.69;;;15.77;100.00
48553;BME280;34335;51.566;6.994;2023-07-31T05:20:53;100322.41;;;15.82;100.00
48553;BME280;34335;51.566;6.994;2023-07-31T05:23:18;100316.41;;;15.79;100.00
48553;BME280;34335;51.566;6.994;2023-07-31T05:25:44;100315.47;;;15.81;100.00
48553;BME280;34335;51.566;6.994;2023-07-31T05:28:09;100318.84;;;15.86;100.00
48553;BME280;34335;51.566;6.994;2023-07-31T05:30:34;100315.41;;;15.84;100.00
48553;BME280;34335;51.566;6.994;2023-07-31T05:32:59;100311.94;;;15.82;100.00
48553;BME280;34335;51.566;6.994;2023-07-31T05:35:25;100309.34;;;15.81;100.00
48553;BME280;34335;51.566;6.994;2023-07-31T05:37:50;100310.19;;;15.83;100.00
48553;BME280;34335;51.566;6.994;2023-07-31T05:40:15;100313.69;;;15.82;100.00
48553;BME280;34335;51.566;6.994;2023-07-31T05:42:41;100305.06;;;15.78;100.00
48553;BME280;34335;51.566;6.994;2023-07-31T05:45:07;100301.69;;;15.73;100.00
48553;BME280;34335;51.566;6.994;2023-07-31T05:47:32;100299.88;;;15.77;100.00
48553;BME280;34335;51.566;6.994;2023-07-31T05:49:57;100298.03;;;15.79;100.00
48553;BME280;34335;51.566;6.994;2023-07-31T05:52:23;100304.31;;;15.73;100.00
48553;BME280;34335;51.566;6.994;2023-07-31T05:54:48;100297.41;;;15.72;100.00
48553;BME280;34335;51.566;6.994;2023-07-31T05:57:13;100297.47;;;15.69;100.00
48553;BME280;34335;51.566;6.994;2023-07-31T05:59:39;100289.53;;;15.72;100.00
48553;BME280;34335;51.566;6.994;2023-07-31T06:02:04;100285.97;;;15.73;100.00
48553;BME280;34335;51.566;6.994;2023-07-31T06:04:30;100281.69;;;15.70;100.00
48553;BME280;34335;51.566;6.994;2023-07-31T06:06:56;100278.31;;;15.67;100.00
48553;BME280;34335;51.566;6.994;2023-07-31T06:09:21;100274.78;;;15.68;100.00
48553;BME280;34335;51.566;6.994;2023-07-31T06:11:46;100269.53;;;15.68;100.00
48553;BME280;34335;51.566;6.994;2023-07-31T06:14:11;100272.09;;;15.71;100.00
48553;BME280;34335;51.566;6.994;2023-07-31T06:16:37;100271.19;;;15.70;100.00
48553;BME280;34335;51.566;6.994;2023-07-31T06:19:02;100276.50;;;15.69;100.00
48553;BME280;34335;51.566;6.994;2023-07-31T06:21:28;100271.97;;;15.74;100.00
48553;BME280;34335;51.566;6.994;2023-07-31T06:23:53;100273.59;;;15.78;100.00
48553;BME280;34335;51.566;6.994;2023-07-31T06:26:18;100268.41;;;15.77;100.00
48553;BME280;34335;51.566;6.994;2023-07-31T06:28:44;100261.53;;;15.72;100.00
48553;BME280;34335;51.566;6.994;2023-07-31T06:31:09;100268.41;;;15.77;100.00
48553;BME280;34335;51.566;6.994;2023-07-31T06:33:34;100259.41;;;15.87;100.00
48553;BME280;34335;51.566;6.994;2023-07-31T06:36:00;100269.06;;;15.83;100.00
48553;BME280;34335;51.566;6.994;2023-07-31T06:38:26;100269.13;;;15.82;100.00
48553;BME280;34335;51.566;6.994;2023-07-31T06:40:52;100260.34;;;15.84;100.00
48553;BME280;34335;51.566;6.994;2023-07-31T06:43:17;100259.50;;;15.84;100.00
48553;BME280;34335;51.566;6.994;2023-07-31T06:45:43;100260.31;;;15.86;100.00
48553;BME280;34335;51.566;6.994;2023-07-31T06:48:08;100268.94;;;15.89;100.00
48553;BME280;34335;51.566;6.994;2023-07-31T06:50:34;100260.19;;;15.91;100.00
48553;BME280;34335;51.566;6.994;2023-07-31T06:52:59;100252.16;;;15.95;100.00
48553;BME280;34335;51.566;6.994;2023-07-31T06:55:25;100259.06;;;15.98;100.00
48553;BME280;34335;51.566;6.994;2023-07-31T06:57:52;100267.91;;;15.95;100.00
48553;BME280;34335;51.566;6.994;2023-07-31T07:00:19;100266.06;;;15.97;100.00
48553;BME280;34335;51.566;6.994;2023-07-31T07:02:44;100259.16;;;15.95;100.00
48553;BME280;34335;51.566;6.994;2023-07-31T07:05:10;100262.50;;;16.00;100.00
48553;BME280;34335;51.566;6.994;2023-07-31T07:07:35;100261.34;;;16.09;100.00
48553;BME280;34335;51.566;6.994;2023-07-31T07:10:01;100252.66;;;16.08;100.00
48553;BME280;34335;51.566;6.994;2023-07-31T07:12:30;100243.28;;;15.99;100.00
48553;BME280;34335;51.566;6.994;2023-07-31T07:14:56;100245.06;;;15.99;100.00
48553;BME280;34335;51.566;6.994;2023-07-31T07:17:22;100257.44;;;15.94;100.00
48553;BME280;34335;51.566;6.994;2023-07-31T07:19:48;100250.47;;;15.93;100.00
48553;BME280;34335;51.566;6.994;2023-07-31T07:22:13;100250.44;;;15.94;100.00
48553;BME280;34335;51.566;6.994;2023-07-31T07:24:38;100251.34;;;15.93;100.00
48553;BME280;34335;51.566;6.994;2023-07-31T07:27:04;100244.47;;;15.89;100.00
48553;BME280;34335;51.566;6.994;2023-07-31T07:29:29;100243.53;;;15.92;100.00
48553;BME280;34335;51.566;6.994;2023-07-31T07:31:55;100250.47;;;15.93;100.00
48553;BME280;34335;51.566;6.994;2023-07-31T07:34:23;100245.19;;;15.94;100.00
48553;BME280;34335;51.566;6.994;2023-07-31T07:36:49;100243.41;;;15.96;100.00
48553;BME280;34335;51.566;6.994;2023-07-31T07:39:14;100244.31;;;15.94;100.00
48553;BME280;34335;51.566;6.994;2023-07-31T07:41:40;100244.31;;;15.94;100.00
48553;BME280;34335;51.566;6.994;2023-07-31T07:44:05;100245.06;;;15.99;100.00
48553;BME280;34335;51.566;6.994;2023-07-31T07:46:31;100248.50;;;16.01;100.00
48553;BME280;34335;51.566;6.994;2023-07-31T07:48:56;100238.44;;;15.87;100.00
48553;BME280;34335;51.566;6.994;2023-07-31T07:51:21;100242.59;;;15.93;100.00
48553;BME280;34335;51.566;6.994;2023-07-31T07:53:47;100245.38;;;15.88;100.00
48553;BME280;34335;51.566;6.994;2023-07-31T07:56:12;100239.09;;;15.94;100.00
48553;BME280;34335;51.566;6.994;2023-07-31T07:58:37;100239.00;;;15.97;100.00
48553;BME280;34335;51.566;6.994;2023-07-31T08:01:02;100238.91;;;16.00;100.00
48553;BME280;34335;51.566;6.994;2023-07-31T08:03:28;100242.22;;;16.05;100.00
48553;BME280;34335;51.566;6.994;2023-07-31T08:05:58;100243.25;;;16.01;100.00
48553;BME280;34335;51.566;6.994;2023-07-31T08:08:23;100241.84;;;15.89;100.00
48553;BME280;34335;51.566;6.994;2023-07-31T08:10:48;100239.34;;;15.86;100.00
48553;BME280;34335;51.566;6.994;2023-07-31T08:13:14;100241.69;;;15.95;100.00
48553;BME280;34335;51.566;6.994;2023-07-31T08:15:41;100226.13;;;15.89;100.00
48553;BME280;34335;51.566;6.994;2023-07-31T08:18:07;100230.44;;;15.90;100.00
48553;BME280;34335;51.566;6.994;2023-07-31T08:20:32;100226.03;;;15.92;100.00
48553;BME280;34335;51.566;6.994;2023-07-31T08:22:58;100218.09;;;15.94;100.00
48553;BME280;34335;51.566;6.994;2023-07-31T08:25:23;100233.84;;;15.94;100.00
48553;BME280;34335;51.566;6.994;2023-07-31T08:27:48;100226.69;;;15.99;100.00
48553;BME280;34335;51.566;6.994;2023-07-31T08:30:13;100225.94;;;15.95;100.00
48553;BME280;34335;51.566;6.994;2023-07-31T08:32:39;100220.84;;;15.91;100.00
48553;BME280;34335;51.566;6.994;2023-07-31T08:35:04;100220.88;;;15.89;100.00
48553;BME280;34335;51.566;6.994;2023-07-31T08:37:29;100218.22;;;15.91;100.00
48553;BME280;34335;51.566;6.994;2023-07-31T08:39:55;100215.41;;;15.97;100.00
48553;BME280;34335;51.566;6.994;2023-07-31T08:42:20;100212.28;;;15.82;100.00
48553;BME280;34335;51.566;6.994;2023-07-31T08:44:46;100215.41;;;15.97;100.00
48553;BME280;34335;51.566;6.994;2023-07-31T08:47:13;100217.41;;;15.88;100.00
48553;BME280;34335;51.566;6.994;2023-07-31T08:49:39;100209.44;;;15.92;100.00
48553;BME280;34335;51.566;6.994;2023-07-31T08:52:06;100215.53;;;15.92;100.00
48553;BME280;34335;51.566;6.994;2023-07-31T08:54:31;100212.09;;;15.90;100.00
48553;BME280;34335;51.566;6.994;2023-07-31T08:56:58;100216.97;;;16.02;100.00
48553;BME280;34335;51.566;6.994;2023-07-31T08:59:27;100221.47;;;15.99;100.00
48553;BME280;34335;51.566;6.994;2023-07-31T09:01:55;100221.53;;;15.96;100.00
48553;BME280;34335;51.566;6.994;2023-07-31T09:04:23;100216.38;;;15.93;100.00
48553;BME280;34335;51.566;6.994;2023-07-31T09:06:49;100218.06;;;15.95;100.00
48553;BME280;34335;51.566;6.994;2023-07-31T09:09:15;100220.03;;;15.88;100.00
48553;BME280;34335;51.566;6.994;2023-07-31T09:11:41;100219.78;;;15.96;100.00
48553;BME280;34335;51.566;6.994;2023-07-31T09:14:08;100217.41;;;15.88;100.00
48553;BME280;34335;51.566;6.994;2023-07-31T09:16:34;100216.34;;;15.94;100.00
48553;BME280;34335;51.566;6.994;2023-07-31T09:19:00;100225.13;;;15.93;100.00
48553;BME280;34335;51.566;6.994;2023-07-31T09:21:28;100218.84;;;15.99;100.00
48553;BME280;34335;51.566;6.994;2023-07-31T09:23:53;100208.06;;;16.07;100.00
48553;BME280;34335;51.566;6.994;2023-07-31T09:26:33;100199.16;;;16.12;100.00
48553;BME280;34335;51.566;6.994;2023-07-31T09:28:59;100201.00;;;16.10;100.00
48553;BME280;34335;51.566;6.994;2023-07-31T09:31:32;100202.75;;;16.10;100.00
48553;BME280;34335;51.566;6.994;2023-07-31T09:33:58;100201.84;;;16.11;100.00
48553;BME280;34335;51.566;6.994;2023-07-31T09:36:23;100201.09;;;16.07;100.00
48553;BME280;34335;51.566;6.994;2023-07-31T09:38:49;100194.72;;;16.14;100.00
48553;BME280;34335;51.566;6.994;2023-07-31T09:41:14;100198.22;;;16.15;100.00
48553;BME280;34335;51.566;6.994;2023-07-31T09:43:39;100194.06;;;16.08;100.00
48553;BME280;34335;51.566;6.994;2023-07-31T09:46:13;100194.72;;;16.14;100.00
48553;BME280;34335;51.566;6.994;2023-07-31T09:48:38;100193.00;;;16.13;100.00
48553;BME280;34335;51.566;6.994;2023-07-31T09:51:04;100193.59;;;16.23;100.00
48553;BME280;34335;51.566;6.994;2023-07-31T09:53:30;100186.63;;;16.22;100.00
48553;BME280;34335;51.566;6.994;2023-07-31T09:55:57;100189.31;;;16.20;100.00
48553;BME280;34335;51.566;6.994;2023-07-31T09:58:23;100184.31;;;16.11;100.00
48553;BME280;34335;51.566;6.994;2023-07-31T10:00:49;100190.22;;;16.19;100.00
48553;BME280;34335;51.566;6.994;2023-07-31T10:03:15;100194.19;;;16.31;100.00
48553;BME280;34335;51.566;6.994;2023-07-31T10:05:46;100182.81;;;16.31;100.00
48553;BME280;34335;51.566;6.994;2023-07-31T10:08:15;100183.69;;;16.31;100.00
48553;BME280;34335;51.566;6.994;2023-07-31T10:10:43;100180.25;;;16.29;100.00
48553;BME280;34335;51.566;6.994;2023-07-31T10:13:08;100181.91;;;16.32;100.00
48553;BME280;34335;51.566;6.994;2023-07-31T10:15:34;100179.88;;;16.40;100.00
48553;BME280;34335;51.566;6.994;2023-07-31T10:18:00;100180.97;;;16.34;100.00
48553;BME280;34335;51.566;6.994;2023-07-31T10:20:26;100186.25;;;16.33;100.00
48553;BME280;34335;51.566;6.994;2023-07-31T10:22:54;100185.25;;;16.37;100.00
48553;BME280;34335;51.566;6.994;2023-07-31T10:25:21;100184.38;;;16.36;100.00
48553;BME280;34335;51.566;6.994;2023-07-31T10:27:47;100181.13;;;16.30;100.00
48553;BME280;34335;51.566;6.994;2023-07-31T10:30:15;100175.91;;;16.28;100.00
48553;BME280;34335;51.566;6.994;2023-07-31T10:32:43;100182.44;;;16.16;100.00
48553;BME280;34335;51.566;6.994;2023-07-31T10:35:09;100166.44;;;16.24;100.00
48553;BME280;34335;51.566;6.994;2023-07-31T10:37:42;100168.84;;;16.30;100.00
48553;BME280;34335;51.566;6.994;2023-07-31T10:40:13;100171.72;;;16.23;100.00
48553;BME280;34335;51.566;6.994;2023-07-31T10:42:56;100186.31;;;16.31;100.00
48553;BME280;34335;51.566;6.994;2023-07-31T10:45:32;100183.19;;;16.20;100.00
48553;BME280;34335;51.566;6.994;2023-07-31T10:48:14;100184.75;;;16.26;100.00
48553;BME280;34335;51.566;6.994;2023-07-31T10:50:50;100173.88;;;16.36;100.00
48553;BME280;34335;51.566;6.994;2023-07-31T10:53:45;100172.00;;;16.40;100.00
48553;BME280;34335;51.566;6.994;2023-07-31T10:56:10;100174.44;;;16.46;100.00
48553;BME280;34335;51.566;6.994;2023-07-31T10:58:44;100170.94;;;16.46;100.00
48553;BME280;34335;51.566;6.994;2023-07-31T11:01:11;100168.66;;;16.62;100.00
48553;BME280;34335;51.566;6.994;2023-07-31T11:03:47;100173.91;;;16.62;100.00
48553;BME280;34335;51.566;6.994;2023-07-31T11:06:15;100167.59;;;16.67;100.00
48553;BME280;34335;51.566;6.994;2023-07-31T11:08:43;100166.91;;;16.62;100.00
48553;BME280;34335;51.566;6.994;2023-07-31T11:11:11;100167.81;;;16.61;100.00
48553;BME280;34335;51.566;6.994;2023-07-31T11:16:08;100173.72;;;16.68;100.00
48553;BME280;34335;51.566;6.994;2023-07-31T11:18:34;100173.72;;;16.68;100.00
48553;BME280;34335;51.566;6.994;2023-07-31T11:21:00;100172.00;;;16.67;100.00
48553;BME280;34335;51.566;6.994;2023-07-31T11:23:25;100175.53;;;16.66;100.00
48553;BME280;34335;51.566;6.994;2023-07-31T11:25:51;100177.69;;;16.80;100.00
48553;BME280;34335;51.566;6.994;2023-07-31T11:28:17;100161.94;;;16.78;100.00
48553;BME280;34335;51.566;6.994;2023-07-31T11:30:44;100179.44;;;16.79;100.00
48553;BME280;34335;51.566;6.994;2023-07-31T11:33:11;100161.81;;;16.83;100.00
48553;BME280;34335;51.566;6.994;2023-07-31T11:35:45;100166.94;;;16.86;100.00
48553;BME280;34335;51.566;6.994;2023-07-31T11:40:49;100154.56;;;16.90;100.00
48553;BME280;34335;51.566;6.994;2023-07-31T11:43:14;100159.13;;;16.85;100.00
48553;BME280;34335;51.566;6.994;2023-07-31T11:45:47;100157.84;;;16.96;100.00
48553;BME280;34335;51.566;6.994;2023-07-31T11:48:23;100156.69;;;17.05;100.00
48553;BME280;34335;51.566;6.994;2023-07-31T11:50:50;100151.94;;;17.15;100.00
48553;BME280;34335;51.566;6.994;2023-07-31T11:53:19;100157.59;;;17.04;100.00
48553;BME280;34335;51.566;6.994;2023-07-31T11:55:46;100162.84;;;17.04;100.00
48553;BME280;34335;51.566;6.994;2023-07-31T11:58:13;100170.06;;;16.97;100.00
48553;BME280;34335;51.566;6.994;2023-07-31T12:00:40;100160.88;;;17.09;100.00
48553;BME280;34335;51.566;6.994;2023-07-31T12:03:06;100161.63;;;17.13;100.00
48553;BME280;34335;51.566;6.994;2023-07-31T12:05:31;100173.09;;;17.10;100.00
48553;BME280;34335;51.566;6.994;2023-07-31T12:07:57;100165.06;;;17.15;100.00
48553;BME280;34335;51.566;6.994;2023-07-31T12:10:30;100159.06;;;17.11;100.00
48553;BME280;34335;51.566;6.994;2023-07-31T12:13:05;100154.97;;;17.04;100.00
48553;BME280;34335;51.566;6.994;2023-07-31T12:18:15;100152.66;;;17.19;100.00
48553;BME280;34335;51.566;6.994;2023-07-31T12:21:04;100145.03;;;17.12;100.00
48553;BME280;34335;51.566;6.994;2023-07-31T12:23:31;100152.38;;;17.26;100.00
48553;BME280;34335;51.566;6.994;2023-07-31T12:26:01;100149.13;;;17.20;100.00
48553;BME280;34335;51.566;6.994;2023-07-31T12:28:27;100144.75;;;17.20;100.00
48553;BME280;34335;51.566;6.994;2023-07-31T12:30:57;100147.47;;;17.17;100.00
48553;BME280;34335;51.566;6.994;2023-07-31T12:33:30;100150.22;;;17.14;100.00
48553;BME280;34335;51.566;6.994;2023-07-31T12:35:56;100144.78;;;17.19;100.00
48553;BME280;34335;51.566;6.994;2023-07-31T12:38:22;100146.66;;;17.15;100.00
48553;BME280;34335;51.566;6.994;2023-07-31T12:40:47;100138.75;;;17.17;100.00
48553;BME280;34335;51.566;6.994;2023-07-31T12:43:13;100138.41;;;17.26;100.00
48553;BME280;34335;51.566;6.994;2023-07-31T12:45:38;100134.78;;;17.28;100.00
48553;BME280;34335;51.566;6.994;2023-07-31T12:48:04;100140.53;;;17.38;100.00